Terminal Aerodrome Forecast
Issued by NWS Charleston, SC

Home | Current Version | Previous Version | Text Only | Print | Product List | Glossary On
Versions: 1 2 3 4 5 6 7 8 9 10 11 12 13 14 15
000
FTUS42 KCHS 220531
TAFCHS
TAF
KCHS 220531Z 2206/2306 00000KT P6SM SCT200
     FM220900 00000KT 6SM MIFG SKC
     FM221300 04005KT P6SM SCT040
     FM221800 09007KT P6SM SCT050 BKN200=

USA.gov is the U.S. government's official web portal to all federal, state and local government web resources and services.